sensor_id;sensor_type;location;lat;lon;timestamp;P1;durP1;ratioP1;P2;durP2;ratioP2
76566;SDS011;65428;53.194;6.132;2023-04-02T00:05:56;7.68;;;2.63;;
76566;SDS011;65428;53.194;6.132;2023-04-02T00:08:46;9.00;;;2.88;;
76566;SDS011;65428;53.194;6.132;2023-04-02T00:11:20;7.60;;;2.75;;
76566;SDS011;65428;53.194;6.132;2023-04-02T00:14:16;6.47;;;2.42;;
76566;SDS011;65428;53.194;6.132;2023-04-02T00:17:03;6.43;;;2.78;;
76566;SDS011;65428;53.194;6.132;2023-04-02T00:19:34;9.77;;;2.75;;
76566;SDS011;65428;53.194;6.132;2023-04-02T00:22:42;7.10;;;2.40;;
76566;SDS011;65428;53.194;6.132;2023-04-02T00:25:22;6.45;;;2.55;;
76566;SDS011;65428;53.194;6.132;2023-04-02T00:28:06;9.25;;;2.50;;
76566;SDS011;65428;53.194;6.132;2023-04-02T00:30:54;7.95;;;2.55;;
76566;SDS011;65428;53.194;6.132;2023-04-02T00:33:36;8.70;;;3.10;;
76566;SDS011;65428;53.194;6.132;2023-04-02T00:40:00;7.30;;;2.60;;
76566;SDS011;65428;53.194;6.132;2023-04-02T00:42:48;8.53;;;2.20;;
76566;SDS011;65428;53.194;6.132;2023-04-02T00:48:40;8.55;;;2.40;;
76566;SDS011;65428;53.194;6.132;2023-04-02T00:51:47;6.80;;;2.70;;
76566;SDS011;65428;53.194;6.132;2023-04-02T00:54:18;5.72;;;1.98;;
76566;SDS011;65428;53.194;6.132;2023-04-02T00:56:54;7.72;;;2.50;;
76566;SDS011;65428;53.194;6.132;2023-04-02T01:02:18;7.00;;;2.60;;
76566;SDS011;65428;53.194;6.132;2023-04-02T01:19:00;7.60;;;2.35;;
76566;SDS011;65428;53.194;6.132;2023-04-02T01:24:45;6.93;;;2.58;;
76566;SDS011;65428;53.194;6.132;2023-04-02T01:27:27;5.47;;;2.40;;
76566;SDS011;65428;53.194;6.132;2023-04-02T01:30:15;5.50;;;2.00;;
76566;SDS011;65428;53.194;6.132;2023-04-02T01:32:46;6.97;;;2.05;;
76566;SDS011;65428;53.194;6.132;2023-04-02T01:35:16;6.67;;;2.20;;
76566;SDS011;65428;53.194;6.132;2023-04-02T01:37:59;4.63;;;1.85;;
76566;SDS011;65428;53.194;6.132;2023-04-02T01:43:53;5.85;;;2.03;;
76566;SDS011;65428;53.194;6.132;2023-04-02T01:46:29;5.82;;;2.50;;
76566;SDS011;65428;53.194;6.132;2023-04-02T01:49:00;6.05;;;1.90;;
76566;SDS011;65428;53.194;6.132;2023-04-02T01:51:51;4.00;;;1.92;;
76566;SDS011;65428;53.194;6.132;2023-04-02T01:54:23;5.30;;;2.10;;
76566;SDS011;65428;53.194;6.132;2023-04-02T01:56:53;6.15;;;2.00;;
76566;SDS011;65428;53.194;6.132;2023-04-02T01:59:29;6.05;;;2.20;;
76566;SDS011;65428;53.194;6.132;2023-04-02T02:02:04;8.63;;;2.10;;
76566;SDS011;65428;53.194;6.132;2023-04-02T02:04:42;5.85;;;1.90;;
76566;SDS011;65428;53.194;6.132;2023-04-02T02:10:37;4.40;;;1.73;;
76566;SDS011;65428;53.194;6.132;2023-04-02T02:13:23;6.55;;;1.50;;
76566;SDS011;65428;53.194;6.132;2023-04-02T02:16:22;5.28;;;1.98;;
76566;SDS011;65428;53.194;6.132;2023-04-02T02:19:35;6.88;;;1.88;;
76566;SDS011;65428;53.194;6.132;2023-04-02T02:25:09;5.03;;;1.80;;
76566;SDS011;65428;53.194;6.132;2023-04-02T02:31:04;5.45;;;1.45;;
76566;SDS011;65428;53.194;6.132;2023-04-02T02:36:43;6.03;;;1.63;;
76566;SDS011;65428;53.194;6.132;2023-04-02T02:39:35;4.88;;;1.65;;
76566;SDS011;65428;53.194;6.132;2023-04-02T02:42:29;4.57;;;1.10;;
76566;SDS011;65428;53.194;6.132;2023-04-02T02:45:04;3.90;;;1.00;;
76566;SDS011;65428;53.194;6.132;2023-04-02T02:47:36;5.47;;;1.30;;
76566;SDS011;65428;53.194;6.132;2023-04-02T02:50:19;5.55;;;1.52;;
76566;SDS011;65428;53.194;6.132;2023-04-02T02:52:58;8.02;;;1.67;;
76566;SDS011;65428;53.194;6.132;2023-04-02T02:55:30;3.87;;;1.20;;
76566;SDS011;65428;53.194;6.132;2023-04-02T02:58:08;5.00;;;1.08;;
76566;SDS011;65428;53.194;6.132;2023-04-02T03:03:42;5.10;;;1.25;;
76566;SDS011;65428;53.194;6.132;2023-04-02T03:17:48;6.32;;;1.40;;
76566;SDS011;65428;53.194;6.132;2023-04-02T03:23:17;5.05;;;1.10;;
76566;SDS011;65428;53.194;6.132;2023-04-02T03:28:40;5.72;;;1.08;;
76566;SDS011;65428;53.194;6.132;2023-04-02T03:31:37;6.13;;;1.30;;
76566;SDS011;65428;53.194;6.132;2023-04-02T03:45:43;4.00;;;0.90;;
76566;SDS011;65428;53.194;6.132;2023-04-02T03:54:37;7.07;;;1.20;;
76566;SDS011;65428;53.194;6.132;2023-04-02T04:03:10;7.88;;;1.40;;
76566;SDS011;65428;53.194;6.132;2023-04-02T04:05:54;5.88;;;0.93;;
76566;SDS011;65428;53.194;6.132;2023-04-02T04:08:52;8.60;;;1.27;;
76566;SDS011;65428;53.194;6.132;2023-04-02T04:11:25;6.00;;;1.17;;
76566;SDS011;65428;53.194;6.132;2023-04-02T04:19:32;6.47;;;1.00;;
76566;SDS011;65428;53.194;6.132;2023-04-02T04:22:07;5.30;;;1.52;;
76566;SDS011;65428;53.194;6.132;2023-04-02T04:24:58;7.65;;;1.50;;
76566;SDS011;65428;53.194;6.132;2023-04-02T04:27:52;7.43;;;1.35;;
76566;SDS011;65428;53.194;6.132;2023-04-02T04:33:16;7.20;;;1.13;;
76566;SDS011;65428;53.194;6.132;2023-04-02T04:36:14;6.05;;;1.15;;
76566;SDS011;65428;53.194;6.132;2023-04-02T04:39:12;5.32;;;0.80;;
76566;SDS011;65428;53.194;6.132;2023-04-02T04:41:42;5.78;;;0.90;;
76566;SDS011;65428;53.194;6.132;2023-04-02T04:46:46;5.38;;;0.70;;
76566;SDS011;65428;53.194;6.132;2023-04-02T04:53:03;6.28;;;0.80;;
76566;SDS011;65428;53.194;6.132;2023-04-02T04:58:41;3.88;;;0.70;;
76566;SDS011;65428;53.194;6.132;2023-04-02T05:04:20;6.60;;;1.02;;
76566;SDS011;65428;53.194;6.132;2023-04-02T05:07:17;4.78;;;0.60;;
76566;SDS011;65428;53.194;6.132;2023-04-02T05:24:50;5.85;;;0.80;;
76566;SDS011;65428;53.194;6.132;2023-04-02T05:27:49;6.25;;;0.90;;
76566;SDS011;65428;53.194;6.132;2023-04-02T05:30:44;5.20;;;0.60;;
76566;SDS011;65428;53.194;6.132;2023-04-02T05:33:29;5.05;;;0.80;;
76566;SDS011;65428;53.194;6.132;2023-04-02T05:36:10;6.47;;;0.93;;
76566;SDS011;65428;53.194;6.132;2023-04-02T05:38:57;4.38;;;0.70;;
76566;SDS011;65428;53.194;6.132;2023-04-02T05:41:42;4.65;;;0.95;;
76566;SDS011;65428;53.194;6.132;2023-04-02T05:44:16;5.88;;;1.00;;
76566;SDS011;65428;53.194;6.132;2023-04-02T05:46:55;6.30;;;0.73;;
76566;SDS011;65428;53.194;6.132;2023-04-02T05:52:28;6.13;;;1.00;;
76566;SDS011;65428;53.194;6.132;2023-04-02T06:01:38;4.03;;;0.70;;
76566;SDS011;65428;53.194;6.132;2023-04-02T06:07:43;5.60;;;0.82;;
76566;SDS011;65428;53.194;6.132;2023-04-02T06:10:47;5.73;;;0.70;;
76566;SDS011;65428;53.194;6.132;2023-04-02T06:14:07;7.05;;;0.93;;
76566;SDS011;65428;53.194;6.132;2023-04-02T06:16:33;6.60;;;0.90;;
76566;SDS011;65428;53.194;6.132;2023-04-02T06:19:00;6.55;;;0.90;;
76566;SDS011;65428;53.194;6.132;2023-04-02T06:21:39;6.05;;;1.10;;
76566;SDS011;65428;53.194;6.132;2023-04-02T06:24:08;5.25;;;0.88;;
76566;SDS011;65428;53.194;6.132;2023-04-02T06:26:38;6.88;;;0.70;;
76566;SDS011;65428;53.194;6.132;2023-04-02T06:29:16;3.90;;;0.65;;
76566;SDS011;65428;53.194;6.132;2023-04-02T06:32:19;5.28;;;0.68;;
76566;SDS011;65428;53.194;6.132;2023-04-02T06:34:49;6.97;;;0.80;;
76566;SDS011;65428;53.194;6.132;2023-04-02T06:37:29;5.85;;;0.77;;
76566;SDS011;65428;53.194;6.132;2023-04-02T06:41:02;3.88;;;0.50;;
76566;SDS011;65428;53.194;6.132;2023-04-02T06:43:51;3.80;;;0.45;;
76566;SDS011;65428;53.194;6.132;2023-04-02T06:47:18;5.60;;;0.77;;
76566;SDS011;65428;53.194;6.132;2023-04-02T06:53:27;4.13;;;0.50;;
76566;SDS011;65428;53.194;6.132;2023-04-02T06:59:19;4.30;;;0.60;;
76566;SDS011;65428;53.194;6.132;2023-04-02T07:05:19;5.07;;;0.53;;
76566;SDS011;65428;53.194;6.132;2023-04-02T07:07:50;4.90;;;0.70;;
76566;SDS011;65428;53.194;6.132;2023-04-02T07:16:31;4.35;;;0.50;;
76566;SDS011;65428;53.194;6.132;2023-04-02T07:19:37;3.47;;;0.60;;
76566;SDS011;65428;53.194;6.132;2023-04-02T07:22:03;3.90;;;0.40;;
76566;SDS011;65428;53.194;6.132;2023-04-02T07:24:37;3.73;;;0.70;;
76566;SDS011;65428;53.194;6.132;2023-04-02T07:27:18;4.07;;;1.00;;
76566;SDS011;65428;53.194;6.132;2023-04-02T07:29:53;3.67;;;0.32;;
76566;SDS011;65428;53.194;6.132;2023-04-02T07:32:21;3.97;;;0.40;;
76566;SDS011;65428;53.194;6.132;2023-04-02T07:34:50;4.68;;;0.40;;
76566;SDS011;65428;53.194;6.132;2023-04-02T07:37:34;4.00;;;0.50;;
76566;SDS011;65428;53.194;6.132;2023-04-02T07:40:29;4.40;;;0.60;;
76566;SDS011;65428;53.194;6.132;2023-04-02T07:43:07;4.68;;;0.50;;
76566;SDS011;65428;53.194;6.132;2023-04-02T07:45:33;5.00;;;0.47;;
76566;SDS011;65428;53.194;6.132;2023-04-02T07:48:09;3.70;;;0.30;;
76566;SDS011;65428;53.194;6.132;2023-04-02T07:50:57;4.57;;;0.52;;
76566;SDS011;65428;53.194;6.132;2023-04-02T07:53:51;5.67;;;0.40;;
76566;SDS011;65428;53.194;6.132;2023-04-02T07:56:24;3.83;;;0.60;;
76566;SDS011;65428;53.194;6.132;2023-04-02T07:59:13;5.57;;;0.43;;
76566;SDS011;65428;53.194;6.132;2023-04-02T08:01:44;3.35;;;0.40;;
76566;SDS011;65428;53.194;6.132;2023-04-02T08:04:50;3.45;;;0.63;;
76566;SDS011;65428;53.194;6.132;2023-04-02T08:10:43;2.42;;;0.43;;
76566;SDS011;65428;53.194;6.132;2023-04-02T08:17:16;2.67;;;0.30;;
76566;SDS011;65428;53.194;6.132;2023-04-02T08:19:48;3.33;;;0.50;;
76566;SDS011;65428;53.194;6.132;2023-04-02T08:22:47;2.30;;;0.38;;
76566;SDS011;65428;53.194;6.132;2023-04-02T08:28:49;2.63;;;0.40;;
76566;SDS011;65428;53.194;6.132;2023-04-02T08:32:22;2.88;;;0.57;;
76566;SDS011;65428;53.194;6.132;2023-04-02T08:34:57;3.00;;;0.40;;
76566;SDS011;65428;53.194;6.132;2023-04-02T08:37:58;7.57;;;0.50;;
76566;SDS011;65428;53.194;6.132;2023-04-02T08:50:18;3.60;;;0.40;;
76566;SDS011;65428;53.194;6.132;2023-04-02T08:53:26;2.80;;;0.47;;
76566;SDS011;65428;53.194;6.132;2023-04-02T09:05:45;3.08;;;0.40;;
76566;SDS011;65428;53.194;6.132;2023-04-02T09:08:21;2.95;;;0.40;;
76566;SDS011;65428;53.194;6.132;2023-04-02T09:14:04;3.08;;;0.30;;
76566;SDS011;65428;53.194;6.132;2023-04-02T09:16:44;4.27;;;0.47;;
76566;SDS011;65428;53.194;6.132;2023-04-02T09:19:24;3.85;;;0.32;;
76566;SDS011;65428;53.194;6.132;2023-04-02T09:25:50;2.65;;;0.30;;
76566;SDS011;65428;53.194;6.132;2023-04-02T09:28:26;2.45;;;0.50;;
76566;SDS011;65428;53.194;6.132;2023-04-02T09:36:51;2.88;;;0.40;;
76566;SDS011;65428;53.194;6.132;2023-04-02T09:39:49;2.38;;;0.30;;
76566;SDS011;65428;53.194;6.132;2023-04-02T09:42:36;2.03;;;0.28;;
76566;SDS011;65428;53.194;6.132;2023-04-02T09:57:32;2.22;;;0.30;;
76566;SDS011;65428;53.194;6.132;2023-04-02T10:00:08;2.42;;;0.30;;
76566;SDS011;65428;53.194;6.132;2023-04-02T10:03:30;3.05;;;0.20;;
76566;SDS011;65428;53.194;6.132;2023-04-02T10:06:32;3.17;;;0.30;;
76566;SDS011;65428;53.194;6.132;2023-04-02T10:09:24;3.65;;;0.50;;
76566;SDS011;65428;53.194;6.132;2023-04-02T10:12:17;2.35;;;0.30;;
76566;SDS011;65428;53.194;6.132;2023-04-02T10:21:57;2.47;;;0.20;;
76566;SDS011;65428;53.194;6.132;2023-04-02T10:28:22;2.42;;;0.28;;
76566;SDS011;65428;53.194;6.132;2023-04-02T10:52:22;1.95;;;0.25;;
76566;SDS011;65428;53.194;6.132;2023-04-02T10:55:31;2.20;;;0.20;;
76566;SDS011;65428;53.194;6.132;2023-04-02T10:58:26;2.03;;;0.20;;
76566;SDS011;65428;53.194;6.132;2023-04-02T11:01:20;2.40;;;0.20;;
76566;SDS011;65428;53.194;6.132;2023-04-02T11:17:00;2.85;;;0.30;;
76566;SDS011;65428;53.194;6.132;2023-04-02T11:19:41;2.10;;;0.20;;
76566;SDS011;65428;53.194;6.132;2023-04-02T11:22:20;2.70;;;0.20;;
76566;SDS011;65428;53.194;6.132;2023-04-02T11:25:23;2.33;;;0.20;;
76566;SDS011;65428;53.194;6.132;2023-04-02T11:28:30;2.30;;;0.22;;
76566;SDS011;65428;53.194;6.132;2023-04-02T11:31:42;3.17;;;0.20;;
76566;SDS011;65428;53.194;6.132;2023-04-02T11:46:00;2.28;;;0.28;;
76566;SDS011;65428;53.194;6.132;2023-04-02T12:02:15;2.47;;;0.20;;
76566;SDS011;65428;53.194;6.132;2023-04-02T12:12:14;1.77;;;0.20;;
76566;SDS011;65428;53.194;6.132;2023-04-02T12:20:53;1.58;;;0.20;;
76566;SDS011;65428;53.194;6.132;2023-04-02T12:23:37;1.88;;;0.20;;
76566;SDS011;65428;53.194;6.132;2023-04-02T12:26:04;2.00;;;0.20;;
76566;SDS011;65428;53.194;6.132;2023-04-02T12:28:38;2.30;;;0.20;;
76566;SDS011;65428;53.194;6.132;2023-04-02T12:31:22;2.78;;;0.20;;
76566;SDS011;65428;53.194;6.132;2023-04-02T12:34:01;2.88;;;0.30;;
76566;SDS011;65428;53.194;6.132;2023-04-02T12:37:03;2.73;;;0.20;;
76566;SDS011;65428;53.194;6.132;2023-04-02T12:39:50;1.98;;;0.20;;
76566;SDS011;65428;53.194;6.132;2023-04-02T12:42:35;1.90;;;0.30;;
76566;SDS011;65428;53.194;6.132;2023-04-02T12:45:21;1.73;;;0.30;;
76566;SDS011;65428;53.194;6.132;2023-04-02T12:48:35;1.67;;;0.20;;
76566;SDS011;65428;53.194;6.132;2023-04-02T12:51:10;2.35;;;0.20;;
76566;SDS011;65428;53.194;6.132;2023-04-02T12:53:38;2.30;;;0.20;;
76566;SDS011;65428;53.194;6.132;2023-04-02T12:56:23;1.42;;;0.20;;
76566;SDS011;65428;53.194;6.132;2023-04-02T12:58:53;1.83;;;0.20;;
76566;SDS011;65428;53.194;6.132;2023-04-02T13:01:53;2.00;;;0.32;;
76566;SDS011;65428;53.194;6.132;2023-04-02T13:04:24;3.00;;;0.60;;
76566;SDS011;65428;53.194;6.132;2023-04-02T13:06:56;2.17;;;0.30;;
76566;SDS011;65428;53.194;6.132;2023-04-02T13:15:00;2.90;;;0.20;;
76566;SDS011;65428;53.194;6.132;2023-04-02T13:17:39;2.13;;;0.20;;
76566;SDS011;65428;53.194;6.132;2023-04-02T13:22:58;1.23;;;0.20;;
76566;SDS011;65428;53.194;6.132;2023-04-02T13:25:31;1.97;;;0.30;;
76566;SDS011;65428;53.194;6.132;2023-04-02T13:28:02;1.55;;;0.28;;
76566;SDS011;65428;53.194;6.132;2023-04-02T13:30:28;1.77;;;0.20;;
76566;SDS011;65428;53.194;6.132;2023-04-02T13:32:59;2.80;;;0.30;;
76566;SDS011;65428;53.194;6.132;2023-04-02T13:35:25;1.55;;;0.20;;
76566;SDS011;65428;53.194;6.132;2023-04-02T13:37:54;1.80;;;0.32;;
76566;SDS011;65428;53.194;6.132;2023-04-02T13:40:30;2.57;;;0.27;;
76566;SDS011;65428;53.194;6.132;2023-04-02T13:43:02;1.58;;;0.30;;
76566;SDS011;65428;53.194;6.132;2023-04-02T13:47:57;1.83;;;0.20;;
76566;SDS011;65428;53.194;6.132;2023-04-02T13:50:25;2.25;;;0.20;;
76566;SDS011;65428;53.194;6.132;2023-04-02T13:52:55;1.27;;;0.30;;
76566;SDS011;65428;53.194;6.132;2023-04-02T13:55:28;2.13;;;0.15;;
76566;SDS011;65428;53.194;6.132;2023-04-02T13:58:03;1.73;;;0.20;;
76566;SDS011;65428;53.194;6.132;2023-04-02T14:00:29;1.27;;;0.20;;
76566;SDS011;65428;53.194;6.132;2023-04-02T14:03:00;1.58;;;0.22;;
76566;SDS011;65428;53.194;6.132;2023-04-02T14:08:34;2.17;;;0.20;;
76566;SDS011;65428;53.194;6.132;2023-04-02T14:21:56;1.92;;;0.20;;
76566;SDS011;65428;53.194;6.132;2023-04-02T14:30:03;1.60;;;0.20;;
76566;SDS011;65428;53.194;6.132;2023-04-02T14:32:52;1.50;;;0.30;;
76566;SDS011;65428;53.194;6.132;2023-04-02T14:35:42;1.23;;;0.20;;
76566;SDS011;65428;53.194;6.132;2023-04-02T14:40:51;2.17;;;0.30;;
76566;SDS011;65428;53.194;6.132;2023-04-02T14:43:29;2.25;;;0.30;;
76566;SDS011;65428;53.194;6.132;2023-04-02T14:46:10;3.00;;;0.30;;
76566;SDS011;65428;53.194;6.132;2023-04-02T14:54:19;3.97;;;0.30;;
76566;SDS011;65428;53.194;6.132;2023-04-02T15:00:03;2.35;;;0.40;;
76566;SDS011;65428;53.194;6.132;2023-04-02T15:02:33;2.70;;;0.90;;
76566;SDS011;65428;53.194;6.132;2023-04-02T15:05:04;1.63;;;0.30;;
76566;SDS011;65428;53.194;6.132;2023-04-02T15:08:04;2.83;;;0.20;;
76566;SDS011;65428;53.194;6.132;2023-04-02T15:13:15;2.30;;;0.40;;
76566;SDS011;65428;53.194;6.132;2023-04-02T15:15:46;1.92;;;0.22;;
76566;SDS011;65428;53.194;6.132;2023-04-02T15:18:21;2.50;;;0.60;;
76566;SDS011;65428;53.194;6.132;2023-04-02T15:21:15;3.47;;;0.30;;
76566;SDS011;65428;53.194;6.132;2023-04-02T15:38:02;2.45;;;0.32;;
76566;SDS011;65428;53.194;6.132;2023-04-02T15:40:39;1.40;;;0.20;;
76566;SDS011;65428;53.194;6.132;2023-04-02T15:43:34;4.63;;;0.30;;
76566;SDS011;65428;53.194;6.132;2023-04-02T15:49:19;2.33;;;0.28;;
76566;SDS011;65428;53.194;6.132;2023-04-02T15:51:53;1.80;;;0.20;;
76566;SDS011;65428;53.194;6.132;2023-04-02T15:54:51;2.35;;;0.20;;
76566;SDS011;65428;53.194;6.132;2023-04-02T16:00:27;1.60;;;0.20;;
76566;SDS011;65428;53.194;6.132;2023-04-02T16:08:34;1.63;;;0.15;;
76566;SDS011;65428;53.194;6.132;2023-04-02T16:11:14;1.67;;;0.20;;
76566;SDS011;65428;53.194;6.132;2023-04-02T16:13:42;2.50;;;0.40;;
76566;SDS011;65428;53.194;6.132;2023-04-02T16:16:32;3.15;;;0.20;;
76566;SDS011;65428;53.194;6.132;2023-04-02T16:21:55;1.60;;;0.20;;
76566;SDS011;65428;53.194;6.132;2023-04-02T16:24:35;2.50;;;0.20;;
76566;SDS011;65428;53.194;6.132;2023-04-02T16:32:38;1.63;;;0.20;;
76566;SDS011;65428;53.194;6.132;2023-04-02T16:38:23;2.55;;;0.55;;
76566;SDS011;65428;53.194;6.132;2023-04-02T16:49:36;3.10;;;0.30;;
76566;SDS011;65428;53.194;6.132;2023-04-02T16:52:46;1.90;;;0.20;;
76566;SDS011;65428;53.194;6.132;2023-04-02T17:01:05;2.33;;;0.30;;
76566;SDS011;65428;53.194;6.132;2023-04-02T17:07:10;2.25;;;0.20;;
76566;SDS011;65428;53.194;6.132;2023-04-02T17:15:38;1.98;;;0.20;;
76566;SDS011;65428;53.194;6.132;2023-04-02T17:18:21;2.93;;;0.27;;
76566;SDS011;65428;53.194;6.132;2023-04-02T17:20:54;1.85;;;0.20;;
76566;SDS011;65428;53.194;6.132;2023-04-02T17:23:24;2.22;;;0.20;;
76566;SDS011;65428;53.194;6.132;2023-04-02T17:26:04;3.65;;;0.60;;
76566;SDS011;65428;53.194;6.132;2023-04-02T17:28:35;3.35;;;0.30;;
76566;SDS011;65428;53.194;6.132;2023-04-02T17:31:09;3.13;;;0.60;;
76566;SDS011;65428;53.194;6.132;2023-04-02T17:33:46;4.82;;;0.40;;
76566;SDS011;65428;53.194;6.132;2023-04-02T17:41:46;3.35;;;0.70;;
76566;SDS011;65428;53.194;6.132;2023-04-02T17:44:29;3.78;;;0.60;;
76566;SDS011;65428;53.194;6.132;2023-04-02T17:52:46;4.30;;;0.50;;
76566;SDS011;65428;53.194;6.132;2023-04-02T18:03:39;2.92;;;0.45;;
76566;SDS011;65428;53.194;6.132;2023-04-02T18:06:19;3.47;;;0.50;;
76566;SDS011;65428;53.194;6.132;2023-04-02T18:09:08;2.53;;;0.40;;
76566;SDS011;65428;53.194;6.132;2023-04-02T18:17:29;4.43;;;0.82;;
76566;SDS011;65428;53.194;6.132;2023-04-02T18:20:30;10.05;;;4.85;;
76566;SDS011;65428;53.194;6.132;2023-04-02T18:23:49;5.68;;;2.78;;
76566;SDS011;65428;53.194;6.132;2023-04-02T18:26:10;4.05;;;1.60;;
76566;SDS011;65428;53.194;6.132;2023-04-02T18:34:42;5.10;;;1.15;;
76566;SDS011;65428;53.194;6.132;2023-04-02T18:40:17;3.30;;;1.13;;
76566;SDS011;65428;53.194;6.132;2023-04-02T18:51:18;10.20;;;4.63;;
76566;SDS011;65428;53.194;6.132;2023-04-02T18:53:50;9.35;;;3.03;;
76566;SDS011;65428;53.194;6.132;2023-04-02T18:56:42;6.43;;;2.20;;
76566;SDS011;65428;53.194;6.132;2023-04-02T18:59:13;10.15;;;4.47;;
76566;SDS011;65428;53.194;6.132;2023-04-02T19:01:57;12.20;;;6.13;;
76566;SDS011;65428;53.194;6.132;2023-04-02T19:04:39;7.13;;;2.28;;
76566;SDS011;65428;53.194;6.132;2023-04-02T19:07:15;3.83;;;1.25;;
76566;SDS011;65428;53.194;6.132;2023-04-02T19:09:45;4.32;;;1.60;;
76566;SDS011;65428;53.194;6.132;2023-04-02T19:12:18;3.17;;;1.30;;
76566;SDS011;65428;53.194;6.132;2023-04-02T19:14:46;3.80;;;1.40;;
76566;SDS011;65428;53.194;6.132;2023-04-02T19:17:35;3.60;;;0.88;;
76566;SDS011;65428;53.194;6.132;2023-04-02T19:28:32;2.67;;;0.70;;
76566;SDS011;65428;53.194;6.132;2023-04-02T19:31:30;2.38;;;0.43;;
76566;SDS011;65428;53.194;6.132;2023-04-02T19:34:26;3.45;;;0.60;;
76566;SDS011;65428;53.194;6.132;2023-04-02T19:37:18;2.17;;;0.40;;
76566;SDS011;65428;53.194;6.132;2023-04-02T19:42:51;2.60;;;0.50;;
76566;SDS011;65428;53.194;6.132;2023-04-02T19:48:08;3.28;;;0.80;;
76566;SDS011;65428;53.194;6.132;2023-04-02T19:53:36;3.15;;;0.90;;
76566;SDS011;65428;53.194;6.132;2023-04-02T19:56:02;2.90;;;0.50;;
76566;SDS011;65428;53.194;6.132;2023-04-02T19:58:29;2.60;;;0.50;;
76566;SDS011;65428;53.194;6.132;2023-04-02T20:00:56;1.70;;;0.40;;
76566;SDS011;65428;53.194;6.132;2023-04-02T20:03:22;2.03;;;0.40;;
76566;SDS011;65428;53.194;6.132;2023-04-02T20:05:51;1.92;;;0.40;;
76566;SDS011;65428;53.194;6.132;2023-04-02T20:08:17;3.42;;;0.80;;
76566;SDS011;65428;53.194;6.132;2023-04-02T20:10:53;2.60;;;0.70;;
76566;SDS011;65428;53.194;6.132;2023-04-02T20:13:20;2.90;;;0.75;;
76566;SDS011;65428;53.194;6.132;2023-04-02T20:15:45;2.70;;;0.50;;
76566;SDS011;65428;53.194;6.132;2023-04-02T20:18:11;3.93;;;0.73;;
76566;SDS011;65428;53.194;6.132;2023-04-02T20:20:39;2.67;;;0.60;;
76566;SDS011;65428;53.194;6.132;2023-04-02T20:23:33;3.65;;;1.38;;
76566;SDS011;65428;53.194;6.132;2023-04-02T20:25:58;4.43;;;1.80;;
76566;SDS011;65428;53.194;6.132;2023-04-02T20:28:31;3.27;;;1.80;;
76566;SDS011;65428;53.194;6.132;2023-04-02T20:31:22;4.88;;;1.85;;
76566;SDS011;65428;53.194;6.132;2023-04-02T20:33:47;2.27;;;1.00;;
76566;SDS011;65428;53.194;6.132;2023-04-02T20:36:16;3.80;;;0.83;;
76566;SDS011;65428;53.194;6.132;2023-04-02T20:38:42;4.20;;;0.98;;
76566;SDS011;65428;53.194;6.132;2023-04-02T20:41:09;2.83;;;0.97;;
76566;SDS011;65428;53.194;6.132;2023-04-02T20:43:40;4.55;;;1.20;;
76566;SDS011;65428;53.194;6.132;2023-04-02T20:46:07;3.05;;;1.00;;
76566;SDS011;65428;53.194;6.132;2023-04-02T20:48:35;2.63;;;0.70;;
76566;SDS011;65428;53.194;6.132;2023-04-02T20:51:14;3.13;;;0.85;;
76566;SDS011;65428;53.194;6.132;2023-04-02T20:53:56;3.30;;;0.57;;
76566;SDS011;65428;53.194;6.132;2023-04-02T20:56:27;3.00;;;0.60;;
76566;SDS011;65428;53.194;6.132;2023-04-02T20:58:53;3.75;;;0.55;;
76566;SDS011;65428;53.194;6.132;2023-04-02T21:01:23;1.80;;;0.50;;
76566;SDS011;65428;53.194;6.132;2023-04-02T21:04:00;2.55;;;0.57;;
76566;SDS011;65428;53.194;6.132;2023-04-02T21:06:48;2.22;;;0.57;;
76566;SDS011;65428;53.194;6.132;2023-04-02T21:12:47;2.35;;;0.52;;
76566;SDS011;65428;53.194;6.132;2023-04-02T21:15:15;2.13;;;0.43;;
76566;SDS011;65428;53.194;6.132;2023-04-02T21:17:50;1.90;;;0.40;;
76566;SDS011;65428;53.194;6.132;2023-04-02T21:20:16;2.10;;;0.50;;
76566;SDS011;65428;53.194;6.132;2023-04-02T21:22:41;2.65;;;0.40;;
76566;SDS011;65428;53.194;6.132;2023-04-02T21:25:10;2.85;;;0.43;;
76566;SDS011;65428;53.194;6.132;2023-04-02T21:27:39;3.10;;;0.57;;
76566;SDS011;65428;53.194;6.132;2023-04-02T21:30:05;2.15;;;0.40;;
76566;SDS011;65428;53.194;6.132;2023-04-02T21:32:31;2.10;;;0.40;;
76566;SDS011;65428;53.194;6.132;2023-04-02T21:35:23;2.72;;;0.47;;
76566;SDS011;65428;53.194;6.132;2023-04-02T21:37:55;2.47;;;0.50;;
76566;SDS011;65428;53.194;6.132;2023-04-02T21:40:26;1.80;;;0.40;;
76566;SDS011;65428;53.194;6.132;2023-04-02T21:42:58;2.88;;;0.57;;
76566;SDS011;65428;53.194;6.132;2023-04-02T21:45:44;2.47;;;0.50;;
76566;SDS011;65428;53.194;6.132;2023-04-02T21:48:18;2.78;;;0.70;;
76566;SDS011;65428;53.194;6.132;2023-04-02T21:50:49;3.60;;;0.50;;
76566;SDS011;65428;53.194;6.132;2023-04-02T21:53:18;3.50;;;0.70;;
76566;SDS011;65428;53.194;6.132;2023-04-02T21:55:47;2.88;;;0.63;;
76566;SDS011;65428;53.194;6.132;2023-04-02T21:58:24;3.13;;;0.73;;
76566;SDS011;65428;53.194;6.132;2023-04-02T22:00:49;4.00;;;0.70;;
76566;SDS011;65428;53.194;6.132;2023-04-02T22:03:15;2.70;;;0.93;;
76566;SDS011;65428;53.194;6.132;2023-04-02T22:05:44;3.97;;;0.70;;
76566;SDS011;65428;53.194;6.132;2023-04-02T22:08:11;3.28;;;0.82;;
76566;SDS011;65428;53.194;6.132;2023-04-02T22:10:37;2.15;;;0.77;;
76566;SDS011;65428;53.194;6.132;2023-04-02T22:13:03;2.83;;;0.70;;
76566;SDS011;65428;53.194;6.132;2023-04-02T22:15:31;2.83;;;0.80;;
76566;SDS011;65428;53.194;6.132;2023-04-02T22:17:57;5.43;;;0.80;;
76566;SDS011;65428;53.194;6.132;2023-04-02T22:20:23;3.83;;;0.93;;
76566;SDS011;65428;53.194;6.132;2023-04-02T22:22:49;2.47;;;0.60;;
76566;SDS011;65428;53.194;6.132;2023-04-02T22:25:15;3.20;;;0.70;;
76566;SDS011;65428;53.194;6.132;2023-04-02T22:27:41;4.90;;;1.05;;
76566;SDS011;65428;53.194;6.132;2023-04-02T22:30:07;2.58;;;0.77;;
76566;SDS011;65428;53.194;6.132;2023-04-02T22:32:34;2.25;;;0.85;;
76566;SDS011;65428;53.194;6.132;2023-04-02T22:35:00;3.63;;;0.90;;
76566;SDS011;65428;53.194;6.132;2023-04-02T22:37:26;3.75;;;0.80;;
76566;SDS011;65428;53.194;6.132;2023-04-02T22:39:53;3.78;;;1.20;;
76566;SDS011;65428;53.194;6.132;2023-04-02T22:42:19;3.35;;;0.90;;
76566;SDS011;65428;53.194;6.132;2023-04-02T22:44:45;4.15;;;1.08;;
76566;SDS011;65428;53.194;6.132;2023-04-02T22:47:11;4.03;;;0.93;;
76566;SDS011;65428;53.194;6.132;2023-04-02T22:49:40;3.80;;;1.05;;
76566;SDS011;65428;53.194;6.132;2023-04-02T22:52:06;3.55;;;0.90;;
76566;SDS011;65428;53.194;6.132;2023-04-02T22:54:39;3.88;;;1.00;;
76566;SDS011;65428;53.194;6.132;2023-04-02T22:57:04;3.93;;;1.00;;
76566;SDS011;65428;53.194;6.132;2023-04-02T22:59:33;4.10;;;1.00;;
76566;SDS011;65428;53.194;6.132;2023-04-02T23:01:59;2.17;;;0.70;;
76566;SDS011;65428;53.194;6.132;2023-04-02T23:04:25;3.33;;;0.87;;
76566;SDS011;65428;53.194;6.132;2023-04-02T23:06:50;3.43;;;0.87;;
76566;SDS011;65428;53.194;6.132;2023-04-02T23:09:17;3.23;;;0.83;;
76566;SDS011;65428;53.194;6.132;2023-04-02T23:11:42;3.30;;;0.80;;
76566;SDS011;65428;53.194;6.132;2023-04-02T23:14:08;2.90;;;0.60;;
76566;SDS011;65428;53.194;6.132;2023-04-02T23:16:34;3.07;;;0.70;;
76566;SDS011;65428;53.194;6.132;2023-04-02T23:19:01;3.20;;;0.60;;
76566;SDS011;65428;53.194;6.132;2023-04-02T23:21:27;4.72;;;1.20;;
76566;SDS011;65428;53.194;6.132;2023-04-02T23:23:53;3.47;;;0.90;;
76566;SDS011;65428;53.194;6.132;2023-04-02T23:26:20;3.78;;;0.75;;
76566;SDS011;65428;53.194;6.132;2023-04-02T23:28:48;3.55;;;0.88;;
76566;SDS011;65428;53.194;6.132;2023-04-02T23:31:20;3.07;;;0.70;;
76566;SDS011;65428;53.194;6.132;2023-04-02T23:33:46;3.50;;;0.90;;
76566;SDS011;65428;53.194;6.132;2023-04-02T23:36:29;2.85;;;0.90;;
76566;SDS011;65428;53.194;6.132;2023-04-02T23:39:03;2.73;;;0.90;;